Ocracoke, NC

6:41 PM EST on December 21, 2014 (GMT -0500)
Piney Island | Change Station
CLOSE
Current Station
Airport
Location: Piney Island,
Elevation: 16 ft
Nearby Weather Stations

Elev 16 ft 35.02 °N, 76.46 °W | Updated 45 minutes ago

Overcast
Overcast
49 °F
Feels Like 49 °F
N
13
Wind Variable Wind from NE

Today
High -- | Low -- °F
--% Chance of Precip.
Yesterday
High -- | Low -- °F
Precip. -- in
7:08 AM 4:55 PM
Waning Crescent, 0% visible
Pressure 30.27 in
Visibility -9999.0 miles
Clouds Mostly Cloudy 4700 ft
Overcast 6000 ft
Dew Point 39 °F
Humidity 69%
Rainfall 0.00 in
Snow Depth Not available.
UV 0 out of 12
Pollen .10 out of 12
Air Quality Not available.
Flu Activity Not available.
METAR KNBT 212256Z AUTO 04011KT BKN047 OVC060 09/04 A3025 RMK AO2 SLP248 T00940039 PNO $

More Conditions Fewer Conditions

Pressure 30.27 in
Visibility -9999.0 miles
Clouds Mostly Cloudy 4700 ft
Overcast 6000 ft
Dew Point 39 °F
Humidity 69%
Rainfall 0.00 in
Snow Depth Not available.
UV 0 out of 12
Pollen .10 out of 12
Air Quality Not available.
Flu Activity Not available.
METAR KNBT 212256Z AUTO 04011KT BKN047 OVC060 09/04 A3025 RMK AO2 SLP248 T00940039 PNO $

More Conditions Fewer Conditions

10-Day Weather Forecast

Almanac

Astronomy

Dec. 21, 2014 Rise Set
Actual Time
Civil Twilight
Nautical Twilight
Astronomical Twilight
Moon
Length of Visible Light
Length of Day
Tomorrow will be .
, % of the Moon is Illuminated

Today's Extremes

State Highs State Lows

Community

WunderPhotos

Upload Photos

1,779,505 photos uploaded!

WunderBlogs® & News

Nearby

Air Quality

  Air Quality AQ Index Pollutant
Not available.

Snow Depth

Station Depth Elevation

Earthquake Activity

City Distance Mag. Time & Date
Minimum magnitude displayed is 2.5.

Coastal Water Temperatures

Place Temperature

Nearby Weather Stations